Time;durP1;ratioP1;P1;durP2;ratioP2;P2;SDS_P1;SDS_P2;PMS_P1;PMS_P2;Temp;Humidity;BMP_temperature;BMP_pressure;BME280_temperature;BME280_humidity;BME280_pressure;Samples;Min_cycle;Max_cycle;Signal;HPM_P1;HPM_P2
2023/10/12 00:02:13;;;;;;;0.40;0.40;;;;;;;14.89;60.00;100151.09;5312117;26;20171;-94
2023/10/12 00:04:43;;;;;;;0.62;0.32;;;;;;;14.82;59.99;100148.81;5312218;26;20067;-93
2023/10/12 00:07:15;;;;;;;0.22;0.22;;;;;;;14.81;60.00;100141.87;5313763;26;20657;-94
2023/10/12 00:10:00;;;;;;;0.40;0.40;;;;;;;14.81;59.99;100142.72;5314353;26;20071;-93
2023/10/12 00:12:25;;;;;;;0.40;0.40;;;;;;;14.80;60.00;100141.03;5317810;26;20817;-94
2023/10/12 00:14:54;;;;;;;1.17;0.80;;;;;;;14.77;59.99;100135.91;5312279;26;20067;-93
2023/10/12 00:17:20;;;;;;;0.10;0.10;;;;;;;14.85;59.99;100135.56;5313077;26;20095;-95
2023/10/12 00:19:46;;;;;;;1.83;0.85;;;;;;;14.70;59.98;100134.50;5311839;26;20111;-96
2023/10/12 00:22:12;;;;;;;0.35;0.35;;;;;;;14.74;59.99;100122.94;5312025;26;20051;-96
2023/10/12 00:24:41;;;;;;;0.77;0.77;;;;;;;14.77;59.99;100127.22;5311820;26;20122;-95
2023/10/12 00:27:09;;;;;;;1.02;0.93;;;;;;;14.76;59.99;100123.72;5312822;26;20147;-96
2023/10/12 00:29:35;;;;;;;0.75;0.75;;;;;;;14.69;59.98;100122.31;5313105;26;20064;-95
2023/10/12 00:32:02;;;;;;;1.10;0.85;;;;;;;14.58;59.98;100124.50;5311907;26;20059;-94
2023/10/12 00:34:34;;;;;;;0.90;0.90;;;;;;;14.55;59.98;100125.50;5313130;26;20056;-96
2023/10/12 00:37:02;;;;;;;0.77;0.57;;;;;;;14.52;59.98;100128.25;5313814;26;20056;-94
2023/10/12 00:39:35;;;;;;;0.52;0.52;;;;;;;14.51;59.98;100123.94;5331130;26;20068;-94
2023/10/12 00:42:01;;;;;;;0.10;0.10;;;;;;;14.48;59.97;100115.34;5314456;26;20466;-95
2023/10/12 00:44:28;;;;;;;1.85;1.42;;;;;;;14.50;59.98;100122.22;5311633;26;20047;-95
2023/10/12 00:49:22;;;;;;;0.20;0.20;;;;;;;14.51;59.98;100110.84;5331719;26;20063;-95
2023/10/12 00:51:51;;;;;;;13.73;1.87;;;;;;;14.53;59.98;100110.75;5312288;26;20068;-95
2023/10/12 00:54:32;;;;;;;0.68;0.68;;;;;;;14.58;59.98;100114.03;5349666;26;20059;-95
2023/10/12 00:57:02;;;;;;;0.68;0.68;;;;;;;14.56;59.98;100113.25;5332619;26;20072;-94
2023/10/12 00:59:34;;;;;;;0.97;0.97;;;;;;;14.72;59.99;100111.69;5331130;26;20032;-96
2023/10/12 01:02:08;;;;;;;0.77;0.77;;;;;;;14.55;59.98;100108.94;5314900;26;20082;-96
2023/10/12 01:04:34;;;;;;;0.60;0.60;;;;;;;14.23;59.96;100111.09;5315592;26;20066;-95
2023/10/12 01:07:00;;;;;;;0.65;0.65;;;;;;;14.13;59.96;100115.00;5313441;26;20069;-96
2023/10/12 01:09:35;;;;;;;3.47;1.23;;;;;;;14.20;59.96;100108.63;5313732;26;20094;-96
2023/10/12 01:12:06;;;;;;;0.62;0.47;;;;;;;14.07;59.95;100110.00;5338320;26;20064;-94
2023/10/12 01:14:32;;;;;;;1.50;0.85;;;;;;;14.12;59.96;100101.06;5334141;26;20062;-94
2023/10/12 01:16:58;;;;;;;1.83;0.80;;;;;;;14.04;59.95;100107.53;5330735;26;20377;-94
2023/10/12 01:19:44;;;;;;;0.52;0.40;;;;;;;13.91;59.95;100096.69;5312190;26;20053;-95
2023/10/12 01:22:13;;;;;;;0.03;0.03;;;;;;;13.92;59.94;100097.53;5317656;26;20108;-94
2023/10/12 01:24:57;;;;;;;1.00;1.00;;;;;;;13.96;59.95;100089.53;5330517;26;20750;-96
2023/10/12 01:27:23;;;;;;;0.43;0.43;;;;;;;13.95;59.94;100089.56;5317083;26;20089;-96
2023/10/12 01:29:48;;;;;;;0.40;0.40;;;;;;;13.93;59.94;100083.53;5330641;26;20059;-95
2023/10/12 01:34:52;;;;;;;0.03;0.00;;;;;;;13.73;59.93;100089.59;5331643;26;20062;-94
2023/10/12 01:40:10;;;;;;;0.32;0.32;;;;;;;13.72;59.94;100086.12;5331636;26;20416;-95
2023/10/12 01:45:17;;;;;;;0.20;0.20;;;;;;;13.72;59.93;100090.47;5332206;26;20111;-95
2023/10/12 01:47:44;;;;;;;1.05;0.80;;;;;;;13.82;59.94;100079.59;5314555;26;20131;-94
2023/10/12 01:50:10;;;;;;;0.25;0.25;;;;;;;13.76;59.94;100076.38;5312125;26;20067;-95
2023/10/12 01:52:35;;;;;;;2.10;0.62;;;;;;;13.69;59.93;100088.84;5311845;26;20136;-96
2023/10/12 01:55:12;;;;;;;1.15;1.08;;;;;;;13.57;59.92;100086.72;5312269;26;20048;-96
2023/10/12 01:57:45;;;;;;;0.85;0.85;;;;;;;13.50;59.93;100086.09;5314969;26;20389;-95
2023/10/12 02:00:11;;;;;;;0.60;0.52;;;;;;;13.51;59.92;100086.97;5314481;26;20116;-96
2023/10/12 02:02:40;;;;;;;0.10;0.10;;;;;;;13.60;59.93;100094.44;5311966;26;20164;-95
2023/10/12 02:05:09;;;;;;;0.68;0.68;;;;;;;13.52;59.93;100088.66;5313210;26;20097;-95
2023/10/12 02:07:35;;;;;;;2.90;1.02;;;;;;;13.65;59.94;100083.78;5331200;26;20057;-95
2023/10/12 02:10:00;;;;;;;0.17;0.17;;;;;;;13.46;59.92;100084.50;5330182;26;20063;-95
2023/10/12 02:12:26;;;;;;;2.72;1.62;;;;;;;13.48;59.92;100085.28;5330381;26;20070;-94
2023/10/12 02:14:52;;;;;;;1.37;0.82;;;;;;;13.33;59.91;100087.66;5316934;26;20063;-95
2023/10/12 02:17:18;;;;;;;2.40;1.12;;;;;;;13.35;59.92;100091.06;5334433;26;20082;-95
2023/10/12 02:19:43;;;;;;;1.48;0.37;;;;;;;13.28;59.91;100087.84;5312054;26;20091;-96
2023/10/12 02:22:20;;;;;;;2.87;1.42;;;;;;;13.27;59.90;100095.75;5311636;26;20070;-94
2023/10/12 02:24:58;;;;;;;0.45;0.45;;;;;;;13.32;59.91;100091.19;5314701;26;20052;-95
2023/10/12 02:27:24;;;;;;;0.50;0.50;;;;;;;13.24;59.90;100091.44;5331285;26;20122;-94
2023/10/12 02:29:53;;;;;;;0.47;0.37;;;;;;;13.18;59.90;100094.28;5311849;26;20141;-95
2023/10/12 02:32:22;;;;;;;1.08;0.35;;;;;;;13.16;59.90;100091.72;5312456;26;20067;-95
2023/10/12 02:34:53;;;;;;;1.62;0.65;;;;;;;13.13;59.90;100090.97;5312983;26;20051;-95
2023/10/12 02:37:18;;;;;;;;;;;;;;;13.13;59.91;100088.37;5331388;26;20091;-96
2023/10/12 02:39:46;;;;;;;0.57;0.57;;;;;;;13.19;59.90;100088.16;5330135;26;19987;-94
2023/10/12 02:47:18;;;;;;;1.45;1.10;;;;;;;12.91;59.89;100088.28;5332885;26;20056;-94
2023/10/12 02:49:45;;;;;;;0.88;0.85;;;;;;;12.83;59.88;100087.72;5330962;26;20078;-95
2023/10/12 02:52:14;;;;;;;0.32;0.32;;;;;;;12.93;59.89;100083.84;5312141;26;20719;-96
2023/10/12 02:54:50;;;;;;;3.92;0.57;;;;;;;12.95;59.89;100079.44;5313235;26;20429;-96
2023/10/12 02:57:25;;;;;;;0.80;0.80;;;;;;;12.91;59.89;100083.91;5316853;26;20032;-94
2023/10/12 03:00:07;;;;;;;0.40;0.40;;;;;;;12.85;59.89;100081.53;5314094;26;20123;-95
2023/10/12 03:02:32;;;;;;;0.00;0.00;;;;;;;12.76;59.88;100089.69;5316912;26;20100;-94
2023/10/12 03:05:04;;;;;;;1.17;0.60;;;;;;;12.73;59.88;100075.88;5312181;26;20099;-96
2023/10/12 03:07:29;;;;;;;0.82;0.65;;;;;;;12.69;59.88;100079.50;5313232;26;20076;-95
2023/10/12 03:09:58;;;;;;;1.00;0.90;;;;;;;12.71;59.87;100070.72;5312600;26;20185;-96
2023/10/12 03:12:25;;;;;;;2.60;1.30;;;;;;;12.69;59.88;100075.16;5312896;26;20112;-96
2023/10/12 03:14:51;;;;;;;1.15;0.90;;;;;;;12.70;59.87;100076.00;5330754;26;20424;-94
2023/10/12 03:17:18;;;;;;;1.25;1.15;;;;;;;12.68;59.88;100075.19;5314714;26;20021;-93
2023/10/12 03:20:29;;;;;;;0.17;0.17;;;;;;;12.70;59.87;100076.00;5320803;26;20056;-96
2023/10/12 03:22:34;;;;;;;1.02;0.95;;;;;;;12.62;59.88;100080.66;5331757;26;20056;-94
2023/10/12 03:25:19;;;;;;;0.57;0.47;;;;;;;12.60;59.87;100078.94;5316802;26;20060;-95
2023/10/12 03:27:53;;;;;;;5.30;2.30;;;;;;;12.61;59.88;100087.63;5340185;26;20028;-94
2023/10/12 03:30:43;;;;;;;0.10;0.10;;;;;;;12.69;59.88;100093.44;5313942;26;20064;-96
2023/10/12 03:33:09;;;;;;;1.48;1.37;;;;;;;12.44;59.87;100089.97;5319778;26;20070;-96
2023/10/12 03:35:44;;;;;;;2.37;1.73;;;;;;;12.48;59.87;100081.97;5312691;26;20036;-95
2023/10/12 03:38:12;;;;;;;0.68;0.68;;;;;;;12.56;59.87;100079.09;5315680;26;20166;-95
2023/10/12 03:40:50;;;;;;;4.10;1.17;;;;;;;12.68;59.88;100078.66;5331298;26;20063;-96
2023/10/12 03:43:28;;;;;;;0.40;0.40;;;;;;;12.54;59.87;100075.69;5316397;26;20048;-95
2023/10/12 03:53:45;;;;;;;1.55;1.45;;;;;;;12.37;59.86;100076.28;5332079;26;20052;-95
2023/10/12 03:56:14;;;;;;;0.65;0.65;;;;;;;12.35;59.85;100072.88;5314213;26;20044;-94
2023/10/12 03:58:46;;;;;;;0.30;0.30;;;;;;;12.25;59.85;100074.06;5313396;26;20075;-95
2023/10/12 04:03:39;;;;;;;0.85;0.30;;;;;;;12.17;59.85;100076.94;5331368;26;20052;-94
2023/10/12 04:06:15;;;;;;;0.52;0.52;;;;;;;12.33;59.86;100069.47;5313001;26;20107;-94
2023/10/12 04:08:59;;;;;;;0.50;0.50;;;;;;;12.34;59.85;100063.31;5331260;26;20090;-93
2023/10/12 04:16:45;;;;;;;1.27;1.08;;;;;;;12.14;59.85;100073.59;5333717;26;20424;-95
2023/10/12 04:19:12;;;;;;;0.10;0.10;;;;;;;12.25;59.85;100069.69;5313105;26;20068;-94
2023/10/12 04:21:52;;;;;;;3.60;1.87;;;;;;;12.22;59.85;100068.94;5319831;26;20068;-96
2023/10/12 04:24:42;;;;;;;0.62;0.62;;;;;;;12.15;59.85;100078.75;5350254;26;20056;-96
2023/10/12 04:27:31;;;;;;;0.73;0.43;;;;;;;12.28;59.85;100071.34;5320042;26;20020;-95
2023/10/12 04:29:57;;;;;;;0.30;0.30;;;;;;;12.19;59.85;100069.06;5338285;26;20797;-95
2023/10/12 04:32:52;;;;;;;0.50;0.47;;;;;;;12.07;59.84;100074.69;5312497;26;20108;-95
2023/10/12 04:35:27;;;;;;;0.57;0.57;;;;;;;12.10;59.85;100065.00;5319565;26;20056;-94
2023/10/12 04:37:55;;;;;;;2.05;0.75;;;;;;;12.21;59.86;100062.03;5315205;26;20416;-95
2023/10/12 04:40:36;;;;;;;0.30;0.30;;;;;;;12.18;59.85;100052.53;5313395;26;20057;-95
2023/10/12 04:43:06;;;;;;;2.65;1.98;;;;;;;12.10;59.84;100065.00;5335914;26;20056;-96
2023/10/12 04:45:55;;;;;;;2.40;1.35;;;;;;;12.15;59.85;100063.09;5314087;26;20091;-96
2023/10/12 04:48:18;;;;;;;1.67;1.23;;;;;;;12.16;59.85;100062.19;5337682;26;20039;-94
2023/10/12 04:50:44;;;;;;;1.45;1.33;;;;;;;12.17;59.85;100057.81;5313055;26;20071;-96
2023/10/12 04:53:12;;;;;;;0.95;0.93;;;;;;;12.14;59.85;100056.16;5313048;26;20057;-96
2023/10/12 04:55:41;;;;;;;0.47;0.47;;;;;;;12.16;59.85;100058.72;5314816;26;20046;-95
2023/10/12 05:01:12;;;;;;;0.28;0.28;;;;;;;12.21;59.85;100070.69;5336516;26;20704;-94
2023/10/12 05:03:39;;;;;;;0.70;0.70;;;;;;;12.28;59.86;100074.81;5319235;26;20072;-94
2023/10/12 05:06:08;;;;;;;1.25;1.15;;;;;;;12.17;59.85;100086.53;5312928;26;20104;-96
2023/10/12 05:08:34;;;;;;;2.58;1.27;;;;;;;12.18;59.85;100085.63;5313649;26;20040;-96
2023/10/12 05:10:59;;;;;;;0.80;0.80;;;;;;;12.08;59.84;100092.06;5312559;26;20063;-96
2023/10/12 05:13:25;;;;;;;2.15;1.55;;;;;;;12.04;59.84;100086.06;5312427;26;20428;-94
2023/10/12 05:16:05;;;;;;;0.75;0.60;;;;;;;11.96;59.84;100086.31;5330716;26;20113;-95
2023/10/12 05:18:31;;;;;;;0.77;0.57;;;;;;;12.17;59.85;100089.97;5316875;26;20647;-96
2023/10/12 05:20:57;;;;;;;2.05;1.70;;;;;;;12.22;59.85;100089.81;5313029;26;20034;-95
2023/10/12 05:23:22;;;;;;;2.12;0.60;;;;;;;12.17;59.85;100087.38;5319069;26;20056;-94
2023/10/12 05:25:53;;;;;;;2.47;1.17;;;;;;;12.14;59.85;100090.09;5314140;26;20060;-95
2023/10/12 05:28:32;;;;;;;0.60;0.60;;;;;;;12.19;59.84;100080.34;5335834;26;20056;-95
2023/10/12 05:36:08;;;;;;;0.60;0.60;;;;;;;12.48;59.86;100070.66;5349783;26;20079;-94
2023/10/12 05:38:37;;;;;;;4.32;0.65;;;;;;;12.55;59.87;100065.19;5333811;26;20045;-95
2023/10/12 05:41:08;;;;;;;2.58;1.95;;;;;;;12.84;59.88;100073.75;5312943;26;20125;-96
2023/10/12 05:43:43;;;;;;;5.43;3.33;;;;;;;13.02;59.89;100085.31;5312243;26;20039;-94
2023/10/12 05:46:15;;;;;;;1.15;1.08;;;;;;;13.22;59.90;100085.44;5347977;26;20122;-94
2023/10/12 05:48:45;;;;;;;1.30;1.05;;;;;;;12.89;59.88;100082.28;5314566;26;20045;-95
2023/10/12 05:51:10;;;;;;;0.82;0.82;;;;;;;12.90;59.89;100078.75;5312014;26;20070;-95
2023/10/12 05:53:37;;;;;;;2.50;0.95;;;;;;;12.88;59.88;100077.97;5311066;26;20099;-95
2023/10/12 05:56:05;;;;;;;1.05;0.93;;;;;;;12.93;59.89;100078.63;5312059;26;20055;-93
2023/10/12 05:58:33;;;;;;;1.33;0.70;;;;;;;13.09;59.89;100077.19;5329577;26;20065;-95
2023/10/12 06:01:07;;;;;;;1.95;1.77;;;;;;;13.06;59.90;100079.06;5311419;26;20068;-95
2023/10/12 06:03:33;;;;;;;1.02;0.98;;;;;;;13.17;59.90;100069.03;5314003;26;20705;-94
2023/10/12 06:05:59;;;;;;;0.60;0.60;;;;;;;13.41;59.91;100073.38;5311759;26;20045;-94
2023/10/12 06:08:27;;;;;;;1.45;0.95;;;;;;;13.67;59.93;100071.50;5330156;26;20066;-96
2023/10/12 06:10:54;;;;;;;1.73;0.93;;;;;;;13.81;59.93;100080.50;5312213;26;20720;-94
2023/10/12 06:13:23;;;;;;;1.00;0.85;;;;;;;13.88;59.94;100086.34;5312518;26;20101;-94
2023/10/12 06:15:53;;;;;;;1.65;0.95;;;;;;;14.00;59.94;100091.09;5330900;26;20801;-96
2023/10/12 06:18:21;;;;;;;1.90;1.42;;;;;;;14.13;59.96;100088.81;5312557;26;20074;-95
2023/10/12 06:21:06;;;;;;;3.08;1.50;;;;;;;14.31;59.96;100092.44;5330873;26;20071;-96
2023/10/12 06:23:32;;;;;;;0.30;0.30;;;;;;;14.60;59.98;100084.22;5315483;26;20700;-95
2023/10/12 06:25:57;;;;;;;1.77;1.67;;;;;;;14.61;59.98;100090.31;5320606;26;20063;-94
2023/10/12 06:28:24;;;;;;;1.30;1.20;;;;;;;14.60;59.98;100084.22;5310931;26;20056;-95
2023/10/12 06:30:52;;;;;;;1.17;1.17;;;;;;;14.75;59.99;100087.97;5328370;26;20064;-94
2023/10/12 06:33:18;;;;;;;0.73;0.55;;;;;;;15.00;60.00;100085.97;5311388;26;20728;-94
2023/10/12 06:35:59;;;;;;;0.68;0.68;;;;;;;15.00;59.99;100091.22;5310433;26;20071;-95
2023/10/12 06:38:37;;;;;;;1.52;0.98;;;;;;;15.09;60.00;100086.47;5314042;26;20052;-96
2023/10/12 06:41:28;;;;;;;1.65;1.52;;;;;;;15.41;60.03;100092.88;5330360;26;20123;-95
2023/10/12 06:46:18;;;;;;;0.88;0.82;;;;;;;15.46;60.02;100080.38;5328616;26;20027;-94
2023/10/12 06:48:47;;;;;;;0.85;0.45;;;;;;;15.52;60.02;100083.56;5329148;26;20079;-94
2023/10/12 06:51:15;;;;;;;1.03;0.77;;;;;;;15.74;60.03;100077.34;5328990;26;20110;-93
2023/10/12 06:53:44;;;;;;;0.17;0.17;;;;;;;15.72;60.03;100081.81;5311314;26;20769;-94
2023/10/12 06:58:46;;;;;;;0.43;0.43;;;;;;;15.94;60.06;100075.44;5332470;26;20093;-96
2023/10/12 07:01:27;;;;;;;0.45;0.45;;;;;;;16.06;60.06;100078.38;5310742;26;20069;-93
2023/10/12 07:03:56;;;;;;;0.30;0.30;;;;;;;16.00;60.05;100070.81;5315539;26;20131;-94
2023/10/12 07:06:21;;;;;;;5.10;1.20;;;;;;;16.28;60.07;100081.66;5311323;26;20090;-94
2023/10/12 07:08:47;;;;;;;2.78;1.20;;;;;;;16.11;60.06;100082.50;5311048;26;20440;-94
2023/10/12 07:11:20;;;;;;;0.08;0.08;;;;;;;16.36;60.07;100086.53;5310623;26;20136;-94
2023/10/12 07:13:45;;;;;;;1.08;0.95;;;;;;;16.44;60.07;100084.37;5312841;26;20060;-94
2023/10/12 07:16:20;;;;;;;0.15;0.15;;;;;;;16.55;60.08;100087.28;5310383;26;20350;-94
2023/10/12 07:18:49;;;;;;;0.95;0.95;;;;;;;16.49;60.08;100084.97;5330324;26;20048;-95
2023/10/12 07:21:21;;;;;;;1.00;0.93;;;;;;;16.40;60.08;100080.19;5311408;26;20024;-94
2023/10/12 07:23:53;;;;;;;0.40;0.40;;;;;;;16.67;60.08;100075.34;5330078;26;20060;-94
2023/10/12 07:26:19;;;;;;;4.68;0.75;;;;;;;16.57;60.08;100082.81;5313715;26;20116;-92
2023/10/12 07:28:49;;;;;;;1.30;0.98;;;;;;;16.75;60.09;100083.66;5312437;26;20066;-94
2023/10/12 07:36:18;;;;;;;2.60;1.08;;;;;;;17.13;60.11;100066.72;5332842;26;20056;-95
2023/10/12 07:39:14;;;;;;;2.70;0.55;;;;;;;17.16;60.12;100063.06;5310406;26;20435;-93
2023/10/12 07:41:41;;;;;;;5.03;1.58;;;;;;;17.27;60.12;100079.12;5335091;26;20413;-95
2023/10/12 07:44:07;;;;;;;1.50;1.40;;;;;;;17.28;60.12;100064.19;5312970;26;20086;-95
2023/10/12 07:46:35;;;;;;;2.30;1.05;;;;;;;17.27;60.12;100059.84;5310827;26;20063;-95
2023/10/12 07:49:21;;;;;;;1.52;1.10;;;;;;;17.51;60.13;100058.53;5310907;26;20048;-95
2023/10/12 07:54:47;;;;;;;20.37;2.17;;;;;;;17.71;60.14;100054.78;5302509;26;20080;-94
2023/10/12 07:57:13;;;;;;;1.60;0.40;;;;;;;17.99;60.15;100057.56;5329396;26;20066;-95
2023/10/12 07:59:42;;;;;;;2.40;1.00;;;;;;;18.09;60.16;100061.34;5310108;26;20060;-94
2023/10/12 08:02:15;;;;;;;0.60;0.60;;;;;;;18.07;60.17;100065.84;5311313;26;20079;-93
2023/10/12 08:04:56;;;;;;;0.90;0.82;;;;;;;18.04;60.16;100066.03;5312965;26;20803;-93
2023/10/12 08:07:26;;;;;;;1.17;1.00;;;;;;;17.97;60.16;100061.19;5331422;26;20705;-94
2023/10/12 08:09:51;;;;;;;;;;;;;;;18.10;60.17;100063.03;5329924;26;20862;-93
2023/10/12 08:12:26;;;;;;;0.40;0.40;;;;;;;18.13;60.17;100055.91;5328467;26;19991;-93
2023/10/12 08:14:54;;;;;;;0.57;0.57;;;;;;;18.37;60.17;100062.34;5313194;26;20088;-93
2023/10/12 08:17:33;;;;;;;1.75;1.65;;;;;;;18.36;60.18;100058.88;5311084;26;20048;-94
2023/10/12 08:22:46;;;;;;;0.40;0.40;;;;;;;18.54;60.18;100046.41;5334574;26;20071;-94
2023/10/12 08:25:11;;;;;;;1.62;1.48;;;;;;;18.69;60.20;100034.97;5310888;26;20707;-95
2023/10/12 08:27:52;;;;;;;2.45;1.62;;;;;;;18.90;60.21;100034.56;5332032;26;20069;-92
2023/10/12 08:30:28;;;;;;;0.77;0.70;;;;;;;19.04;60.21;100039.00;5314634;26;20364;-92
2023/10/12 08:33:09;;;;;;;0.98;0.93;;;;;;;19.27;60.23;100033.13;5313331;26;20078;-95
2023/10/12 08:38:32;;;;;;;0.93;0.93;;;;;;;19.42;60.23;100029.53;5334504;26;20108;-94
2023/10/12 08:43:52;;;;;;;1.65;0.90;;;;;;;19.65;60.25;100032.50;5334326;26;20127;-93
2023/10/12 08:46:48;;;;;;;2.47;2.05;;;;;;;19.67;60.25;100035.91;5313051;26;20086;-91
2023/10/12 08:52:15;;;;;;;1.15;0.62;;;;;;;19.75;60.25;100028.31;5334361;26;20085;-92
2023/10/12 08:54:40;;;;;;;5.47;3.05;;;;;;;19.97;60.27;100025.09;5335619;26;20127;-94
2023/10/12 08:57:38;;;;;;;0.62;0.62;;;;;;;20.09;60.27;100019.81;5328453;26;20107;-93
2023/10/12 09:00:24;;;;;;;1.48;1.37;;;;;;;20.31;60.28;100023.66;5314918;26;20064;-93
2023/10/12 09:02:58;;;;;;;0.80;0.77;;;;;;;20.34;60.28;100012.88;5331134;26;20066;-93
2023/10/12 09:05:24;;;;;;;1.25;1.17;;;;;;;20.67;60.30;100013.25;5329710;26;20063;-93
2023/10/12 09:08:39;;;;;;;0.75;0.75;;;;;;;20.75;60.31;100012.72;5309731;26;20098;-93
2023/10/12 09:10:55;;;;;;;0.30;0.22;;;;;;;20.76;60.30;100015.25;5334503;26;20117;-94
2023/10/12 09:13:21;;;;;;;4.28;1.27;;;;;;;20.82;60.30;100014.84;5366722;26;20032;-93
2023/10/12 09:15:54;;;;;;;1.65;0.90;;;;;;;20.93;60.31;100011.44;5327957;26;20059;-93
2023/10/12 09:18:20;;;;;;;2.20;0.80;;;;;;;21.21;60.33;100014.75;5328856;26;20064;-92
2023/10/12 09:23:33;;;;;;;0.62;0.45;;;;;;;21.39;60.34;100005.53;5331877;26;20420;-94
2023/10/12 09:31:15;;;;;;;1.08;1.08;;;;;;;21.56;60.34;99999.84;5330950;26;20779;-93
2023/10/12 09:36:26;;;;;;;2.33;2.03;;;;;;;21.72;60.37;99999.53;5332745;26;20059;-94
2023/10/12 09:38:55;;;;;;;4.15;1.10;;;;;;;21.99;60.37;99997.47;5309933;26;20077;-93
2023/10/12 09:41:28;;;;;;;9.55;1.12;;;;;;;22.20;60.38;99995.03;5311211;26;20056;-93
2023/10/12 09:43:58;;;;;;;2.65;1.27;;;;;;;22.45;60.39;99983.38;5328414;26;20135;-94
2023/10/12 09:46:27;;;;;;;1.17;1.17;;;;;;;22.65;60.41;99988.00;5310391;26;20064;-94
2023/10/12 09:49:06;;;;;;;0.47;0.45;;;;;;;22.64;60.40;99980.16;5311135;26;20079;-94
2023/10/12 09:51:37;;;;;;;0.77;0.77;;;;;;;22.78;60.41;99977.28;5312567;26;20187;-93
2023/10/12 09:54:18;;;;;;;2.05;1.10;;;;;;;22.97;60.42;99971.37;5310798;26;20118;-94
2023/10/12 09:56:46;;;;;;;0.37;0.37;;;;;;;23.14;60.43;99977.97;5313172;26;20131;-94
2023/10/12 09:59:18;;;;;;;1.23;1.12;;;;;;;23.28;60.44;99983.03;5310862;26;20067;-94
2023/10/12 10:09:48;;;;;;;7.78;1.55;;;;;;;23.89;60.48;99978.84;5366655;26;20696;-93
2023/10/12 10:12:16;;;;;;;0.88;0.68;;;;;;;24.02;60.48;99973.34;5310421;26;20056;-94
2023/10/12 10:14:45;;;;;;;0.40;0.40;;;;;;;24.03;60.47;99966.22;5310056;26;20745;-93
2023/10/12 10:17:20;;;;;;;1.33;1.23;;;;;;;24.23;60.49;99960.03;5310737;26;20076;-93
2023/10/12 10:19:51;;;;;;;0.90;0.90;;;;;;;24.40;60.50;99962.16;5329119;26;20060;-94
2023/10/12 10:22:18;;;;;;;1.00;0.98;;;;;;;24.47;60.50;99960.63;5328553;26;20776;-94
2023/10/12 10:24:50;;;;;;;0.68;0.68;;;;;;;24.53;60.51;99951.25;5310071;26;20059;-94
2023/10/12 10:27:16;;;;;;;0.10;0.10;;;;;;;24.75;60.51;99959.06;5310589;26;20067;-92
2023/10/12 10:29:53;;;;;;;9.38;0.98;;;;;;;24.90;60.52;99958.72;5310303;26;20155;-94
2023/10/12 10:32:29;;;;;;;1.75;1.52;;;;;;;25.09;60.53;99956.13;5329052;26;20508;-94
2023/10/12 10:34:57;;;;;;;0.70;0.70;;;;;;;25.02;60.53;99952.31;5329280;26;20047;-94
2023/10/12 10:37:39;;;;;;;0.43;0.43;;;;;;;25.21;60.54;99944.38;5328343;26;20401;-94
2023/10/12 10:40:08;;;;;;;0.98;0.73;;;;;;;25.36;60.54;99950.16;5328074;26;20063;-95
2023/10/12 10:42:36;;;;;;;1.60;1.05;;;;;;;25.35;60.54;99943.97;5311119;26;20056;-94
2023/10/12 10:45:12;;;;;;;1.12;1.02;;;;;;;25.27;60.54;99938.47;5309818;26;20087;-94
2023/10/12 10:47:38;;;;;;;2.58;1.37;;;;;;;25.43;60.55;99937.09;5310632;26;20056;-93
2023/10/12 10:50:04;;;;;;;0.50;0.50;;;;;;;25.46;60.55;99942.16;5309345;26;20105;-95
2023/10/12 10:52:32;;;;;;;0.75;0.75;;;;;;;25.61;60.56;99932.78;5328501;26;20079;-94
2023/10/12 10:54:59;;;;;;;1.27;0.85;;;;;;;25.61;60.56;99930.09;5310191;26;20450;-94
2023/10/12 10:57:25;;;;;;;0.85;0.85;;;;;;;25.97;60.58;99936.53;5309441;26;20478;-95
2023/10/12 10:59:56;;;;;;;0.80;0.70;;;;;;;25.94;60.59;99936.81;5327855;26;20463;-94
2023/10/12 11:02:21;;;;;;;4.20;1.33;;;;;;;26.02;60.57;99928.94;5311081;26;20087;-95
2023/10/12 11:04:48;;;;;;;1.75;1.58;;;;;;;25.82;60.57;99928.16;5308830;26;20091;-94
2023/10/12 11:07:15;;;;;;;1.83;1.40;;;;;;;25.91;60.58;99926.44;5346562;26;20074;-93
2023/10/12 11:12:16;;;;;;;1.05;1.00;;;;;;;26.18;60.60;99921.19;5328148;26;20112;-94
2023/10/12 11:14:52;;;;;;;0.77;0.60;;;;;;;26.20;60.59;99929.88;5309003;26;20043;-94
2023/10/12 11:17:19;;;;;;;0.60;0.60;;;;;;;26.15;60.59;99920.66;5328856;26;20074;-93
2023/10/12 11:19:45;;;;;;;0.77;0.60;;;;;;;26.23;60.59;99920.75;5309734;26;20064;-95
2023/10/12 11:22:14;;;;;;;13.62;2.53;;;;;;;26.17;60.60;99918.66;5308829;26;20048;-94
2023/10/12 11:24:47;;;;;;;3.95;1.27;;;;;;;26.19;60.59;99922.88;5309281;26;20052;-94
2023/10/12 11:27:12;;;;;;;1.02;0.90;;;;;;;26.30;60.60;99909.37;5309763;26;20420;-93
2023/10/12 11:29:50;;;;;;;1.98;1.37;;;;;;;26.41;60.61;99905.69;5328121;26;20069;-95
2023/10/12 11:32:16;;;;;;;0.93;0.93;;;;;;;26.51;60.62;99898.50;5309739;26;20056;-96
2023/10/12 11:34:54;;;;;;;1.70;1.60;;;;;;;26.67;60.62;99897.00;5309347;26;20056;-94
2023/10/12 11:37:20;;;;;;;0.75;0.75;;;;;;;26.72;60.62;99892.91;5311976;26;20060;-95
2023/10/12 11:39:46;;;;;;;0.70;0.70;;;;;;;26.66;60.62;99895.34;5309314;26;20052;-95
2023/10/12 11:42:12;;;;;;;0.55;0.50;;;;;;;26.66;60.62;99888.16;5309409;26;20091;-94
2023/10/12 11:44:42;;;;;;;0.43;0.40;;;;;;;26.69;60.62;99893.19;5310273;26;20364;-95
2023/10/12 11:47:08;;;;;;;;;;;;;;;26.85;60.63;99884.53;5329434;26;20073;-96
2023/10/12 11:49:55;;;;;;;0.30;0.30;;;;;;;26.88;60.64;99884.25;5347111;26;19979;-94
2023/10/12 11:52:40;;;;;;;0.82;0.77;;;;;;;26.85;60.62;99882.72;5311616;26;20090;-96
2023/10/12 11:55:21;;;;;;;1.02;0.93;;;;;;;27.03;60.65;99877.44;5310393;26;20071;-95
2023/10/12 11:57:53;;;;;;;1.33;1.20;;;;;;;27.00;60.63;99877.75;5313356;26;20084;-94
2023/10/12 12:00:26;;;;;;;1.98;1.52;;;;;;;26.83;60.63;99871.34;5331180;26;20064;-95
2023/10/12 12:02:57;;;;;;;0.82;0.82;;;;;;;26.89;60.63;99872.56;5313054;26;20055;-94
2023/10/12 12:05:23;;;;;;;1.67;0.90;;;;;;;26.88;60.64;99862.88;5329663;26;20024;-94
2023/10/12 12:07:51;;;;;;;1.05;1.05;;;;;;;26.70;60.62;99865.50;5328630;26;20032;-94
2023/10/12 12:10:29;;;;;;;3.40;1.55;;;;;;;26.64;60.63;99863.44;5311097;26;20106;-94
2023/10/12 12:12:57;;;;;;;6.80;2.03;;;;;;;26.79;60.62;99869.13;5312724;26;20032;-96
2023/10/12 12:15:24;;;;;;;1.40;1.12;;;;;;;26.88;60.64;99862.88;5329601;26;20025;-94
2023/10/12 12:17:51;;;;;;;3.42;1.73;;;;;;;26.93;60.63;99863.25;5328446;26;20028;-94
2023/10/12 12:20:21;;;;;;;1.00;0.80;;;;;;;27.06;60.64;99858.44;5310361;26;20064;-94
2023/10/12 12:22:47;;;;;;;1.23;0.68;;;;;;;27.02;60.64;99854.38;5311403;26;20055;-95
2023/10/12 12:25:31;;;;;;;0.90;0.90;;;;;;;27.17;60.64;99846.66;5328392;26;20083;-95
2023/10/12 12:28:01;;;;;;;0.90;0.90;;;;;;;27.32;60.65;99849.66;5317117;26;20082;-94
2023/10/12 12:30:32;;;;;;;;;;;;;;;27.39;60.65;99850.69;5311367;26;20731;-94
2023/10/12 12:33:00;;;;;;;0.77;0.62;;;;;;;27.43;60.65;99844.03;5346956;26;20009;-95
2023/10/12 12:35:29;;;;;;;0.45;0.45;;;;;;;27.59;60.67;99836.16;5311103;26;20122;-95
2023/10/12 12:38:00;;;;;;;0.90;0.52;;;;;;;27.47;60.67;99842.75;5309807;26;20075;-94
2023/10/12 12:40:38;;;;;;;1.55;0.45;;;;;;;27.46;60.66;99833.91;5310722;26;20075;-95
2023/10/12 12:43:07;;;;;;;0.20;0.20;;;;;;;27.51;60.67;99828.09;5331329;26;20055;-95
2023/10/12 12:45:35;;;;;;;2.25;0.65;;;;;;;27.39;60.66;99826.63;5329287;26;20080;-94
2023/10/12 12:48:01;;;;;;;3.05;0.77;;;;;;;27.18;60.64;99814.44;5310476;26;20095;-94
2023/10/12 12:50:28;;;;;;;1.70;1.37;;;;;;;27.21;60.65;99816.81;5328471;26;20161;-94
2023/10/12 12:52:54;;;;;;;1.37;0.98;;;;;;;27.28;60.64;99808.19;5310248;26;20739;-94
2023/10/12 12:55:25;;;;;;;0.50;0.50;;;;;;;27.21;60.65;99800.78;5309728;26;20073;-94
2023/10/12 12:57:50;;;;;;;1.58;1.05;;;;;;;27.43;60.65;99798.59;5311209;26;20095;-93
2023/10/12 13:00:19;;;;;;;2.40;1.40;;;;;;;27.48;60.66;99793.66;5309892;26;20083;-94
2023/10/12 13:02:47;;;;;;;1.95;1.17;;;;;;;27.30;60.66;99796.34;5311002;26;20060;-94
2023/10/12 13:05:14;;;;;;;1.80;1.20;;;;;;;27.40;60.66;99790.88;5310098;26;20696;-93
2023/10/12 13:07:40;;;;;;;4.43;1.20;;;;;;;27.38;60.66;99790.22;5310479;26;20028;-94
2023/10/12 13:10:07;;;;;;;0.82;0.80;;;;;;;27.52;60.67;99789.66;5309900;26;20075;-94
2023/10/12 13:12:32;;;;;;;0.62;0.40;;;;;;;27.52;60.67;99789.66;5346707;26;20048;-93